createdAt,value
2023-05-20T00:00:08.646Z,218359.00
2023-05-20T00:06:11.245Z,218439.00
2023-05-20T00:12:13.884Z,218507.00
2023-05-20T00:18:16.994Z,218595.00
2023-05-20T00:24:19.596Z,218646.00
2023-05-20T00:30:22.184Z,218646.00
2023-05-20T00:36:24.802Z,218660.00
2023-05-20T00:42:28.455Z,218623.00
2023-05-20T00:48:33.531Z,218595.00
2023-05-20T00:54:35.950Z,218617.00
2023-05-20T01:00:38.536Z,218617.00
2023-05-20T01:06:41.049Z,218553.00
2023-05-20T01:12:46.778Z,218521.00
2023-05-20T01:18:50.132Z,218501.00
2023-05-20T01:24:55.953Z,218466.00
2023-05-20T01:31:01.060Z,218431.00
2023-05-20T01:37:06.236Z,218395.00
2023-05-20T01:43:09.748Z,218310.00
2023-05-20T01:49:12.086Z,218258.00
2023-05-20T01:55:14.960Z,218208.00
2023-05-20T02:01:18.091Z,218208.00
2023-05-20T02:07:20.628Z,218166.00
2023-05-20T02:13:23.155Z,218094.00
2023-05-20T02:19:25.679Z,218051.00
2023-05-20T02:25:28.059Z,217943.00
2023-05-20T02:31:30.666Z,217853.00
2023-05-20T02:37:33.087Z,217765.00
2023-05-20T02:43:37.084Z,217752.00
2023-05-20T02:49:39.612Z,217730.00
2023-05-20T02:55:42.243Z,217661.00
2023-05-20T03:01:45.736Z,217653.00
2023-05-20T03:07:49.191Z,217661.00
2023-05-20T03:13:51.798Z,217680.00
2023-05-20T03:19:54.512Z,217694.00
2023-05-20T03:25:58.180Z,217730.00
2023-05-20T03:32:00.644Z,217765.00
2023-05-20T03:38:03.178Z,217744.00
2023-05-20T03:44:06.681Z,217744.00
2023-05-20T03:50:09.251Z,217817.00
2023-05-20T03:56:12.079Z,217995.00
2023-05-20T04:02:16.794Z,218116.00
2023-05-20T04:08:20.474Z,218302.00
2023-05-20T04:14:23.415Z,218401.00
2023-05-20T04:20:26.504Z,218466.00
2023-05-20T04:26:31.890Z,218609.00
2023-05-20T04:32:37.142Z,218882.00
2023-05-20T04:38:40.539Z,219277.00
2023-05-20T04:44:42.998Z,219875.00
2023-05-20T04:50:45.439Z,219935.00
2023-05-20T04:56:48.346Z,219994.00
2023-05-20T05:02:50.953Z,220272.00
2023-05-20T05:08:54.703Z,220726.00
2023-05-20T05:14:59.082Z,220740.00
2023-05-20T05:21:04.133Z,220789.00
2023-05-20T05:27:07.510Z,220952.00
2023-05-20T05:33:10.127Z,220892.00
2023-05-20T05:39:12.968Z,220944.00
2023-05-20T05:45:16.288Z,222583.00
2023-05-20T05:51:19.383Z,223485.00
2023-05-20T05:57:23.883Z,224697.00
2023-05-20T06:03:26.585Z,224419.00
2023-05-20T06:09:29.467Z,224121.00
2023-05-20T06:15:32.555Z,224099.00
2023-05-20T06:21:35.617Z,224361.00
2023-05-20T06:27:38.387Z,222921.00
2023-05-20T06:33:44.673Z,222115.00
2023-05-20T06:39:54.166Z,221882.00
2023-05-20T06:45:57.252Z,222183.00
2023-05-20T06:52:06.030Z,221817.00
2023-05-20T06:58:08.996Z,221985.00
2023-05-20T07:04:13.552Z,222242.00
2023-05-20T07:10:16.197Z,222264.00
2023-05-20T07:16:18.722Z,222316.00
2023-05-20T07:22:31.745Z,222492.00
2023-05-20T07:28:57.653Z,224210.00
2023-05-20T07:35:00.391Z,223956.00
2023-05-20T07:41:02.996Z,223493.00
2023-05-20T07:47:06.167Z,223018.00
2023-05-20T07:53:09.950Z,222913.00
2023-05-20T07:59:12.449Z,222773.00
2023-05-20T08:05:20.867Z,223102.00
2023-05-20T08:11:23.647Z,224487.00
2023-05-20T08:17:26.565Z,224473.00
2023-05-20T08:23:29.858Z,224457.00
2023-05-20T08:29:32.622Z,224425.00
2023-05-20T08:35:36.501Z,224863.00
2023-05-20T08:41:39.938Z,225376.00
2023-05-20T08:47:46.748Z,225083.00
2023-05-20T08:53:49.458Z,226111.00
2023-05-20T08:59:52.138Z,226542.00
2023-05-20T09:05:54.804Z,227047.00
2023-05-20T09:11:57.371Z,227148.00
2023-05-20T09:18:04.237Z,227562.00
2023-05-20T09:24:07.100Z,227954.00
2023-05-20T09:30:09.829Z,228386.00
2023-05-20T09:36:14.503Z,228055.00
2023-05-20T09:42:24.606Z,227954.00
2023-05-20T09:48:28.240Z,228186.00
2023-05-20T09:54:31.795Z,226950.00
2023-05-20T10:00:35.036Z,226057.00
2023-05-20T10:06:56.693Z,225465.00
2023-05-20T10:13:25.146Z,225481.00
2023-05-20T10:19:33.397Z,226362.00
2023-05-20T10:25:36.197Z,226833.00
2023-05-20T10:31:46.378Z,226887.00
2023-05-20T10:37:49.130Z,226057.00
2023-05-20T10:44:05.398Z,226424.00
2023-05-20T10:50:08.392Z,227124.00
2023-05-20T10:56:25.482Z,227079.00
2023-05-20T11:02:29.221Z,226919.00
2023-05-20T11:08:34.283Z,226988.00
2023-05-20T11:14:36.628Z,226308.00
2023-05-20T11:20:38.970Z,225744.00
2023-05-20T11:26:41.750Z,226111.00
2023-05-20T11:32:45.120Z,226772.00
2023-05-20T11:38:47.988Z,226247.00
2023-05-20T11:44:50.218Z,226542.00
2023-05-20T11:50:54.921Z,226210.00
2023-05-20T11:56:57.472Z,226269.00
2023-05-20T12:02:59.901Z,226485.00
2023-05-20T12:09:07.476Z,225837.00
2023-05-20T12:15:10.498Z,226469.00
2023-05-20T12:21:12.988Z,226788.00
2023-05-20T12:27:15.539Z,227218.00
2023-05-20T12:33:18.067Z,227234.00
2023-05-20T12:39:20.290Z,227103.00
2023-05-20T12:45:22.670Z,227416.00
2023-05-20T12:51:25.232Z,226849.00
2023-05-20T12:57:27.708Z,226180.00
2023-05-20T13:03:30.279Z,224925.00
2023-05-20T13:09:33.671Z,224202.00
2023-05-20T13:15:36.534Z,223641.00
2023-05-20T13:21:38.954Z,223204.00
2023-05-20T13:27:41.057Z,222937.00
2023-05-20T13:33:43.596Z,222981.00
2023-05-20T13:39:45.956Z,223150.00
2023-05-20T13:45:48.370Z,223315.00
2023-05-20T13:51:51.318Z,223337.00
2023-05-20T13:57:54.619Z,223248.00
2023-05-20T14:03:57.703Z,222805.00
2023-05-20T14:10:00.309Z,222707.00
2023-05-20T14:16:02.808Z,222805.00
2023-05-20T14:22:05.179Z,222791.00
2023-05-20T14:28:07.877Z,222767.00
2023-05-20T14:34:10.408Z,222618.00
2023-05-20T14:40:13.509Z,222640.00
2023-05-20T14:46:15.899Z,222567.00
2023-05-20T14:52:18.781Z,222464.00
2023-05-20T14:58:21.468Z,222492.00
2023-05-20T15:04:23.968Z,222567.00
2023-05-20T15:10:26.592Z,222624.00
2023-05-20T15:16:29.172Z,222589.00
2023-05-20T15:22:31.663Z,222567.00
2023-05-20T15:28:34.135Z,222486.00
2023-05-20T15:34:37.019Z,222553.00
2023-05-20T15:40:39.993Z,222537.00
2023-05-20T15:46:42.657Z,222456.00
2023-05-20T15:52:45.056Z,222272.00
2023-05-20T15:58:47.535Z,222115.00
2023-05-20T16:04:50.161Z,222001.00
2023-05-20T16:10:53.204Z,221888.00
2023-05-20T16:16:55.753Z,221830.00
2023-05-20T16:22:57.961Z,221750.00
2023-05-20T16:29:00.304Z,221646.00
2023-05-20T16:35:03.138Z,221492.00
2023-05-20T16:41:05.550Z,221315.00
2023-05-20T16:47:09.610Z,221185.00
2023-05-20T16:53:12.286Z,221098.00
2023-05-20T16:59:15.604Z,220922.00
2023-05-20T17:05:17.976Z,220797.00
2023-05-20T17:11:20.693Z,220691.00
2023-05-20T17:17:23.130Z,220607.00
2023-05-20T17:23:25.522Z,220495.00
2023-05-20T17:29:27.722Z,220427.00
2023-05-20T17:35:32.197Z,220354.00
2023-05-20T17:41:34.541Z,220280.00
2023-05-20T17:47:36.960Z,220196.00
2023-05-20T17:53:39.151Z,220130.00
2023-05-20T17:59:42.225Z,220029.00
2023-05-20T18:05:44.821Z,219949.00
2023-05-20T18:11:47.333Z,219889.00
2023-05-20T18:17:50.601Z,219819.00
2023-05-20T18:23:53.064Z,219782.00
2023-05-20T18:29:55.501Z,219752.00
2023-05-20T18:35:58.121Z,219711.00
2023-05-20T18:42:00.243Z,219660.00
2023-05-20T18:48:02.696Z,219608.00
2023-05-20T18:54:05.013Z,219550.00
2023-05-20T19:00:12.615Z,219515.00
2023-05-20T19:06:17.122Z,219474.00
2023-05-20T19:12:19.855Z,219400.00
2023-05-20T19:18:22.464Z,219341.00
2023-05-20T19:24:24.596Z,219263.00
2023-05-20T19:30:26.973Z,219213.00
2023-05-20T19:36:29.202Z,219147.00
2023-05-20T19:42:31.612Z,219133.00
2023-05-20T19:48:34.494Z,219133.00
2023-05-20T19:54:36.800Z,219119.00
2023-05-20T20:00:39.216Z,219091.00
2023-05-20T20:06:41.754Z,219075.00
2023-05-20T20:12:43.923Z,219024.00
2023-05-20T20:18:46.040Z,218996.00
2023-05-20T20:24:50.096Z,218953.00
2023-05-20T20:30:52.587Z,218918.00
2023-05-20T20:36:55.126Z,218860.00
2023-05-20T20:42:58.899Z,218874.00
2023-05-20T20:49:01.644Z,218904.00
2023-05-20T20:55:04.839Z,218918.00
2023-05-20T21:01:07.525Z,218860.00
2023-05-20T21:07:09.834Z,218832.00
2023-05-20T21:13:12.035Z,218788.00
2023-05-20T21:19:14.857Z,218731.00
2023-05-20T21:25:17.266Z,218704.00
2023-05-20T21:31:19.969Z,218668.00
2023-05-20T21:37:22.672Z,218631.00
2023-05-20T21:43:25.217Z,218617.00
2023-05-20T21:49:27.646Z,218579.00
2023-05-20T21:55:30.057Z,218537.00
2023-05-20T22:01:32.417Z,218515.00
2023-05-20T22:07:34.899Z,218488.00
2023-05-20T22:13:41.740Z,218458.00
2023-05-20T22:19:44.520Z,218423.00
2023-05-20T22:25:47.078Z,218373.00
2023-05-20T22:31:49.219Z,218367.00
2023-05-20T22:37:51.552Z,218359.00
2023-05-20T22:43:54.118Z,218310.00
2023-05-20T22:49:57.887Z,218288.00
2023-05-20T22:56:01.084Z,218280.00
2023-05-20T23:02:04.284Z,218288.00
2023-05-20T23:08:07.103Z,218264.00
2023-05-20T23:14:09.427Z,218222.00
2023-05-20T23:20:12.036Z,218188.00
2023-05-20T23:26:14.165Z,218166.00
2023-05-20T23:32:16.813Z,218138.00
2023-05-20T23:38:19.495Z,218124.00
2023-05-20T23:44:21.897Z,218094.00
2023-05-20T23:50:24.269Z,218066.00
2023-05-20T23:56:26.720Z,218037.00
